createdAt,value
2022-09-23T00:01:00.589Z,5.70
2022-09-23T00:03:28.936Z,5.68
2022-09-23T00:06:04.020Z,6.07
2022-09-23T00:08:30.684Z,5.90
2022-09-23T00:11:03.272Z,6.10
2022-09-23T00:13:29.929Z,5.40
2022-09-23T00:15:56.540Z,5.55
2022-09-23T00:18:23.275Z,5.28
2022-09-23T00:20:49.922Z,5.97
2022-09-23T00:23:16.528Z,6.07
2022-09-23T00:25:43.119Z,6.93
2022-09-23T00:28:09.736Z,5.82
2022-09-23T00:30:36.464Z,5.32
2022-09-23T00:33:03.063Z,5.95
2022-09-23T00:35:29.668Z,5.38
2022-09-23T00:37:56.324Z,5.55
2022-09-23T00:40:23.054Z,5.72
2022-09-23T00:42:51.996Z,5.45
2022-09-23T00:45:18.957Z,5.68
2022-09-23T00:47:54.713Z,5.28
2022-09-23T00:50:36.068Z,5.20
2022-09-23T00:55:48.569Z,5.05
2022-09-23T00:58:19.091Z,5.15
2022-09-23T01:00:46.849Z,4.97
2022-09-23T01:03:14.290Z,5.25
2022-09-23T01:05:42.087Z,5.18
2022-09-23T01:08:10.580Z,5.78
2022-09-23T01:10:49.397Z,5.80
2022-09-23T01:13:50.210Z,5.20
2022-09-23T01:16:38.035Z,5.00
2022-09-23T01:19:18.799Z,5.18
2022-09-23T01:22:04.922Z,5.35
2022-09-23T01:24:55.567Z,5.10
2022-09-23T01:27:30.987Z,6.10
2022-09-23T01:30:19.913Z,5.93
2022-09-23T01:33:15.728Z,6.40
2022-09-23T01:35:42.967Z,6.93
2022-09-23T01:38:28.857Z,9.27
2022-09-23T01:41:25.793Z,7.13
2022-09-23T01:44:18.127Z,8.50
2022-09-23T01:47:06.723Z,7.88
2022-09-23T01:49:42.342Z,6.88
2022-09-23T01:52:40.040Z,5.85
2022-09-23T01:55:16.001Z,5.80
2022-09-23T01:58:02.790Z,5.88
2022-09-23T02:00:35.027Z,4.72
2022-09-23T02:03:07.066Z,5.55
2022-09-23T02:05:39.740Z,5.47
2022-09-23T02:08:10.788Z,5.47
2022-09-23T02:10:52.821Z,5.38
2022-09-23T02:13:32.564Z,4.93
2022-09-23T02:16:06.371Z,5.20
2022-09-23T02:18:49.552Z,5.20
2022-09-23T02:21:20.244Z,5.18
2022-09-23T02:23:52.728Z,6.10
2022-09-23T02:26:35.103Z,5.53
2022-09-23T02:29:42.672Z,5.63
2022-09-23T02:32:20.356Z,5.10
2022-09-23T02:35:08.018Z,5.28
2022-09-23T02:38:13.243Z,4.90
2022-09-23T02:41:16.235Z,5.10
2022-09-23T02:44:00.807Z,5.18
2022-09-23T02:46:30.017Z,4.97
2022-09-23T02:49:04.121Z,5.25
2022-09-23T02:51:38.117Z,5.22
2022-09-23T02:54:10.381Z,5.63
2022-09-23T02:56:37.456Z,5.80
2022-09-23T02:59:05.914Z,5.20
2022-09-23T03:01:46.567Z,5.53
2022-09-23T03:04:50.481Z,5.25
2022-09-23T03:07:56.079Z,4.80
2022-09-23T03:10:28.307Z,4.97
2022-09-23T03:13:11.191Z,4.53
2022-09-23T03:15:45.389Z,4.80
2022-09-23T03:18:31.385Z,4.70
2022-09-23T03:21:03.703Z,5.20
2022-09-23T03:23:37.111Z,6.45
2022-09-23T03:26:13.710Z,6.57
2022-09-23T03:28:43.663Z,6.15
2022-09-23T03:31:12.879Z,5.63
2022-09-23T03:33:43.488Z,5.60
2022-09-23T03:36:33.244Z,5.78
2022-09-23T03:39:08.430Z,6.65
2022-09-23T03:41:42.064Z,4.82
2022-09-23T03:44:10.537Z,5.05
2022-09-23T03:46:37.503Z,5.43
2022-09-23T03:49:10.548Z,5.40
2022-09-23T03:51:40.434Z,5.60
2022-09-23T03:54:09.846Z,4.70
2022-09-23T03:56:37.588Z,4.50
2022-09-23T03:59:04.215Z,4.43
2022-09-23T04:01:30.839Z,5.20
2022-09-23T04:03:57.444Z,4.97
2022-09-23T04:06:24.070Z,4.93
2022-09-23T04:08:50.740Z,4.70
2022-09-23T04:11:17.417Z,4.88
2022-09-23T04:13:44.180Z,5.88
2022-09-23T04:16:10.822Z,5.57
2022-09-23T04:18:37.593Z,5.40
2022-09-23T04:21:04.392Z,6.00
2022-09-23T04:23:31.060Z,5.40
2022-09-23T04:25:57.645Z,5.53
2022-09-23T04:28:24.431Z,5.43
2022-09-23T04:30:51.172Z,5.85
2022-09-23T04:33:18.231Z,5.97
2022-09-23T04:35:44.949Z,6.28
2022-09-23T04:38:12.675Z,6.72
2022-09-23T04:40:40.103Z,6.00
2022-09-23T04:43:09.541Z,6.32
2022-09-23T04:45:38.614Z,7.75
2022-09-23T04:48:05.271Z,7.63
2022-09-23T04:50:33.878Z,7.75
2022-09-23T04:53:00.993Z,8.80
2022-09-23T04:55:27.768Z,7.20
2022-09-23T04:57:54.659Z,5.85
2022-09-23T05:00:23.167Z,6.82
2022-09-23T05:02:50.570Z,5.80
2022-09-23T05:05:22.285Z,6.90
2022-09-23T05:07:49.311Z,6.20
2022-09-23T05:10:16.559Z,6.38
2022-09-23T05:12:43.565Z,7.22
2022-09-23T05:15:10.512Z,7.40
2022-09-23T05:17:37.387Z,7.50
2022-09-23T05:20:04.928Z,7.07
2022-09-23T05:22:31.620Z,6.88
2022-09-23T05:25:00.279Z,5.72
2022-09-23T05:27:27.254Z,7.60
2022-09-23T05:29:54.098Z,6.78
2022-09-23T05:32:21.820Z,7.15
2022-09-23T05:34:48.732Z,7.10
2022-09-23T05:37:15.386Z,7.88
2022-09-23T05:39:42.089Z,7.82
2022-09-23T05:42:09.876Z,7.53
2022-09-23T05:44:36.479Z,7.13
2022-09-23T05:47:03.295Z,7.35
2022-09-23T05:49:55.213Z,7.00
2022-09-23T05:52:17.647Z,8.00
2022-09-23T05:54:44.299Z,6.05
2022-09-23T05:57:10.949Z,6.85
2022-09-23T05:59:38.133Z,6.43
2022-09-23T06:02:04.889Z,7.10
2022-09-23T06:04:31.621Z,6.55
2022-09-23T06:07:02.800Z,7.75
2022-09-23T06:09:35.611Z,16.23
2022-09-23T06:12:03.167Z,8.35
2022-09-23T06:14:29.748Z,7.28
2022-09-23T06:16:56.336Z,7.55
2022-09-23T06:19:22.990Z,6.72
2022-09-23T06:21:49.843Z,7.47
2022-09-23T06:24:20.223Z,7.43
2022-09-23T06:26:48.182Z,6.85
2022-09-23T06:29:14.764Z,7.95
2022-09-23T06:31:41.962Z,7.22
2022-09-23T06:34:13.884Z,6.88
2022-09-23T06:36:45.014Z,7.20
2022-09-23T06:39:15.902Z,6.82
2022-09-23T06:41:43.921Z,7.55
2022-09-23T06:44:10.909Z,6.40
2022-09-23T06:46:37.671Z,7.20
2022-09-23T06:49:04.390Z,6.60
2022-09-23T06:51:31.267Z,7.47
2022-09-23T06:53:58.168Z,7.22
2022-09-23T06:56:24.844Z,7.80
2022-09-23T06:58:52.463Z,8.38
2022-09-23T07:01:19.757Z,7.40
2022-09-23T07:03:50.202Z,7.88
2022-09-23T07:06:17.323Z,7.95
2022-09-23T07:08:47.430Z,7.10
2022-09-23T07:11:15.456Z,6.13
2022-09-23T07:13:42.640Z,6.80
2022-09-23T07:16:10.952Z,6.53
2022-09-23T07:18:38.896Z,6.10
2022-09-23T07:21:07.813Z,5.97
2022-09-23T07:23:34.623Z,6.20
2022-09-23T07:26:01.734Z,6.57
2022-09-23T07:28:29.096Z,6.28
2022-09-23T07:31:00.307Z,6.05
2022-09-23T07:33:32.990Z,6.05
2022-09-23T07:36:08.497Z,5.78
2022-09-23T07:38:37.954Z,6.50
2022-09-23T07:41:11.535Z,6.18
2022-09-23T07:43:39.688Z,5.72
2022-09-23T07:46:16.306Z,5.78
2022-09-23T07:48:45.024Z,6.00
2022-09-23T07:51:34.807Z,5.68
2022-09-23T07:54:02.625Z,6.20
2022-09-23T07:56:30.215Z,6.93
2022-09-23T07:59:04.502Z,6.00
2022-09-23T08:01:35.328Z,5.63
2022-09-23T08:04:14.020Z,6.53
2022-09-23T08:06:42.801Z,6.30
2022-09-23T08:09:10.722Z,6.28
2022-09-23T08:11:41.716Z,5.80
2022-09-23T08:14:10.088Z,4.57
2022-09-23T08:16:37.131Z,5.78
2022-09-23T08:21:30.347Z,5.72
2022-09-23T08:23:57.695Z,5.30
2022-09-23T08:26:24.677Z,5.22
2022-09-23T08:28:55.118Z,5.43
2022-09-23T08:31:22.886Z,4.85
2022-09-23T08:33:56.830Z,5.43
2022-09-23T08:36:24.738Z,5.43
2022-09-23T08:38:51.759Z,5.53
2022-09-23T08:41:57.573Z,7.03
2022-09-23T08:44:32.380Z,5.57
2022-09-23T08:47:26.056Z,4.95
2022-09-23T08:50:07.711Z,4.57
2022-09-23T08:52:49.064Z,4.40
2022-09-23T08:58:25.377Z,3.90
2022-09-23T09:01:08.538Z,3.80
2022-09-23T09:03:56.406Z,3.67
2022-09-23T09:06:27.707Z,3.60
2022-09-23T09:08:59.166Z,3.70
2022-09-23T09:11:33.294Z,4.25
2022-09-23T09:14:10.541Z,3.60
2022-09-23T09:17:02.724Z,2.90
2022-09-23T09:19:32.439Z,2.90
2022-09-23T09:22:00.768Z,3.40
2022-09-23T09:24:34.610Z,4.45
2022-09-23T09:27:12.583Z,4.07
2022-09-23T09:29:49.766Z,5.05
2022-09-23T09:32:21.369Z,4.85
2022-09-23T09:34:55.549Z,4.88
2022-09-23T09:37:31.731Z,4.55
2022-09-23T09:39:58.512Z,4.40
2022-09-23T09:42:41.100Z,4.28
2022-09-23T09:45:11.129Z,4.13
2022-09-23T09:47:56.640Z,3.58
2022-09-23T09:50:45.104Z,4.03
2022-09-23T09:53:32.023Z,4.13
2022-09-23T09:56:05.335Z,4.28
2022-09-23T09:58:43.709Z,5.28
2022-09-23T10:01:20.460Z,4.82
2022-09-23T10:03:47.557Z,4.60
2022-09-23T10:06:24.807Z,4.60
2022-09-23T10:09:13.804Z,4.80
2022-09-23T10:11:41.185Z,4.80
2022-09-23T10:14:18.012Z,4.70
2022-09-23T10:16:48.735Z,4.60
2022-09-23T10:19:28.223Z,4.78
2022-09-23T10:22:15.115Z,4.30
2022-09-23T10:24:48.428Z,4.72
2022-09-23T10:27:15.151Z,4.53
2022-09-23T10:29:47.890Z,4.10
2022-09-23T10:32:28.029Z,4.47
2022-09-23T10:34:58.312Z,3.30
2022-09-23T10:37:32.685Z,4.03
2022-09-23T10:40:19.055Z,3.80
2022-09-23T10:43:26.197Z,3.90
2022-09-23T10:46:15.854Z,3.65
2022-09-23T10:48:54.806Z,3.90
2022-09-23T10:51:38.703Z,3.53
2022-09-23T10:54:11.969Z,4.07
2022-09-23T10:56:52.321Z,3.58
2022-09-23T10:59:30.883Z,4.20
2022-09-23T11:02:39.064Z,3.65
2022-09-23T11:05:36.392Z,3.70
2022-09-23T11:08:44.889Z,4.22
2022-09-23T11:11:17.125Z,3.47
2022-09-23T11:13:43.711Z,3.42
2022-09-23T11:16:36.163Z,3.53
2022-09-23T11:19:17.229Z,3.78
2022-09-23T11:22:04.034Z,3.30
2022-09-23T11:25:23.065Z,3.80
2022-09-23T11:28:17.811Z,3.55
2022-09-23T11:31:09.903Z,3.63
2022-09-23T11:33:53.918Z,3.58
2022-09-23T11:36:44.428Z,3.90
2022-09-23T11:39:19.502Z,4.00
2022-09-23T11:41:48.017Z,4.00
2022-09-23T11:44:22.841Z,4.45
2022-09-23T11:46:58.280Z,4.35
2022-09-23T11:49:36.749Z,4.22
2022-09-23T11:52:19.364Z,4.22
2022-09-23T11:55:14.145Z,4.50
2022-09-23T11:57:50.516Z,4.20
2022-09-23T12:00:21.180Z,6.15
2022-09-23T12:03:10.403Z,4.63
2022-09-23T12:05:51.307Z,4.53
2022-09-23T12:08:25.478Z,4.72
2022-09-23T12:11:10.707Z,4.80
2022-09-23T12:13:57.922Z,5.32
2022-09-23T12:16:42.685Z,4.82
2022-09-23T12:19:40.167Z,5.00
2022-09-23T12:22:45.820Z,5.03
2022-09-23T12:25:34.136Z,5.43
2022-09-23T12:28:10.689Z,5.72
2022-09-23T12:30:39.249Z,5.13
2022-09-23T12:33:16.245Z,5.20
2022-09-23T12:35:45.855Z,5.18
2022-09-23T12:38:14.147Z,4.97
2022-09-23T12:40:43.954Z,5.60
2022-09-23T12:43:29.723Z,5.00
2022-09-23T12:46:20.118Z,4.70
2022-09-23T12:48:59.045Z,4.60
2022-09-23T12:51:36.778Z,4.00
2022-09-23T12:54:03.454Z,4.53
2022-09-23T12:56:36.304Z,5.15
2022-09-23T12:59:17.983Z,4.60
2022-09-23T13:01:44.819Z,4.65
2022-09-23T13:05:01.808Z,4.55
2022-09-23T13:07:34.140Z,4.60
2022-09-23T13:10:16.100Z,4.28
2022-09-23T13:12:45.109Z,4.30
2022-09-23T13:15:28.991Z,4.68
2022-09-23T13:18:20.529Z,4.50
2022-09-23T13:20:49.408Z,5.35
2022-09-23T13:23:15.963Z,3.90
2022-09-23T13:25:43.846Z,4.20
2022-09-23T13:28:54.424Z,4.80
2022-09-23T13:31:21.417Z,4.70
2022-09-23T13:34:07.974Z,4.25
2022-09-23T13:36:49.007Z,4.60
2022-09-23T13:39:26.683Z,3.60
2022-09-23T13:42:01.163Z,4.07
2022-09-23T13:44:28.849Z,3.40
2022-09-23T13:46:59.670Z,3.90
2022-09-23T13:49:32.349Z,3.78
2022-09-23T13:51:59.691Z,3.70
2022-09-23T13:54:37.746Z,3.47
2022-09-23T13:57:04.530Z,3.15
2022-09-23T13:59:37.808Z,2.67
2022-09-23T14:02:11.825Z,3.28
2022-09-23T14:04:39.369Z,3.40
2022-09-23T14:07:12.708Z,3.00
2022-09-23T14:09:45.418Z,2.80
2022-09-23T14:12:13.014Z,2.83
2022-09-23T14:14:42.406Z,2.80
2022-09-23T14:17:14.097Z,3.05
2022-09-23T14:19:42.696Z,2.92
2022-09-23T14:22:30.138Z,2.88
2022-09-23T14:24:58.422Z,3.15
2022-09-23T14:27:32.466Z,3.35
2022-09-23T14:30:01.503Z,3.10
2022-09-23T14:32:29.621Z,3.03
2022-09-23T14:35:05.102Z,3.53
2022-09-23T14:37:56.411Z,3.30
2022-09-23T14:43:04.535Z,3.00
2022-09-23T14:45:38.476Z,2.90
2022-09-23T14:48:35.722Z,3.00
2022-09-23T14:51:07.726Z,3.00
2022-09-23T14:53:46.271Z,3.30
2022-09-23T14:56:17.228Z,2.90
2022-09-23T15:01:31.456Z,2.90
2022-09-23T15:04:00.382Z,2.88
2022-09-23T15:06:27.712Z,2.80
2022-09-23T15:08:55.844Z,3.10
2022-09-23T15:11:22.874Z,2.78
2022-09-23T15:13:52.647Z,2.55
2022-09-23T15:16:27.511Z,2.75
2022-09-23T15:18:57.626Z,2.97
2022-09-23T15:21:25.821Z,2.80
2022-09-23T15:23:58.567Z,2.47
2022-09-23T15:26:40.597Z,2.53
2022-09-23T15:29:10.387Z,2.78
2022-09-23T15:31:37.686Z,2.55
2022-09-23T15:34:05.559Z,2.83
2022-09-23T15:36:32.508Z,2.50
2022-09-23T15:39:04.045Z,2.45
2022-09-23T15:41:32.978Z,2.42
2022-09-23T15:44:05.481Z,2.60
2022-09-23T15:46:33.612Z,2.40
2022-09-23T15:49:06.306Z,2.40
2022-09-23T15:51:33.221Z,2.30
2022-09-23T15:53:59.855Z,2.38
2022-09-23T15:56:29.261Z,2.60
2022-09-23T15:58:56.041Z,2.13
2022-09-23T16:01:28.681Z,2.20
2022-09-23T16:03:55.691Z,2.10
2022-09-23T16:06:24.242Z,2.10
2022-09-23T16:08:52.157Z,2.10
2022-09-23T16:11:27.380Z,2.20
2022-09-23T16:13:54.052Z,2.00
2022-09-23T16:16:23.752Z,2.80
2022-09-23T16:18:53.395Z,2.22
2022-09-23T16:21:23.998Z,2.40
2022-09-23T16:23:51.448Z,2.25
2022-09-23T16:26:21.467Z,2.30
2022-09-23T16:28:49.718Z,2.17
2022-09-23T16:31:16.732Z,2.70
2022-09-23T16:33:45.225Z,2.65
2022-09-23T16:36:22.440Z,2.47
2022-09-23T16:38:49.280Z,2.65
2022-09-23T16:41:15.933Z,2.30
2022-09-23T16:43:42.570Z,2.40
2022-09-23T16:46:12.484Z,2.95
2022-09-23T16:48:40.515Z,2.53
2022-09-23T16:51:13.218Z,2.83
2022-09-23T16:53:39.767Z,3.42
2022-09-23T16:56:11.000Z,4.75
2022-09-23T17:01:25.178Z,3.17
2022-09-23T17:03:53.175Z,3.75
2022-09-23T17:06:20.270Z,2.80
2022-09-23T17:08:51.052Z,2.85
2022-09-23T17:11:17.909Z,3.50
2022-09-23T17:13:45.187Z,3.40
2022-09-23T17:16:22.531Z,3.15
2022-09-23T17:18:49.255Z,3.33
2022-09-23T17:21:16.064Z,3.17
2022-09-23T17:23:42.836Z,3.20
2022-09-23T17:26:13.152Z,3.05
2022-09-23T17:28:39.742Z,2.92
2022-09-23T17:31:07.835Z,2.85
2022-09-23T17:33:38.101Z,2.40
2022-09-23T17:36:09.512Z,2.27
2022-09-23T17:38:39.081Z,2.30
2022-09-23T17:41:07.700Z,2.50
2022-09-23T17:43:36.148Z,2.50
2022-09-23T17:46:08.563Z,2.45
2022-09-23T17:48:37.632Z,2.45
2022-09-23T17:51:08.277Z,2.67
2022-09-23T17:53:37.541Z,2.15
2022-09-23T17:56:06.701Z,2.42
2022-09-23T17:58:37.001Z,2.30
2022-09-23T18:01:15.073Z,2.65
2022-09-23T18:03:45.122Z,2.22
2022-09-23T18:06:17.601Z,2.50
2022-09-23T18:08:46.099Z,2.55
2022-09-23T18:11:24.477Z,2.80
2022-09-23T18:13:56.149Z,2.45
2022-09-23T18:16:28.503Z,2.92
2022-09-23T18:19:00.779Z,2.75
2022-09-23T18:21:30.960Z,2.70
2022-09-23T18:24:15.691Z,2.78
2022-09-23T18:26:46.392Z,2.58
2022-09-23T18:29:13.740Z,2.50
2022-09-23T18:31:41.114Z,2.75
2022-09-23T18:34:12.378Z,2.70
2022-09-23T18:39:06.658Z,2.60
2022-09-23T18:41:33.927Z,2.72
2022-09-23T18:44:00.878Z,2.95
2022-09-23T18:46:32.234Z,3.00
2022-09-23T18:51:51.781Z,3.20
2022-09-23T18:54:19.575Z,2.65
2022-09-23T18:56:46.610Z,3.00
2022-09-23T18:59:17.972Z,3.15
2022-09-23T19:01:46.030Z,3.00
2022-09-23T19:04:14.145Z,2.88
2022-09-23T19:06:41.189Z,2.90
2022-09-23T19:09:08.385Z,2.80
2022-09-23T19:11:36.495Z,3.38
2022-09-23T19:14:05.975Z,3.20
2022-09-23T19:16:33.124Z,3.30
2022-09-23T19:19:00.288Z,3.20
2022-09-23T19:21:28.269Z,2.75
2022-09-23T19:23:57.236Z,2.72
2022-09-23T19:26:31.156Z,2.60
2022-09-23T19:28:59.412Z,3.15
2022-09-23T19:31:33.386Z,2.70
2022-09-23T19:34:10.055Z,2.60
2022-09-23T19:36:39.748Z,2.80
2022-09-23T19:39:11.270Z,2.47
2022-09-23T19:41:39.984Z,2.80
2022-09-23T19:44:07.880Z,2.50
2022-09-23T19:46:40.848Z,2.80
2022-09-23T19:49:08.314Z,3.33
2022-09-23T19:51:35.214Z,2.72
2022-09-23T19:54:03.996Z,3.53
2022-09-23T19:56:31.897Z,2.80
2022-09-23T19:58:59.952Z,3.03
2022-09-23T20:01:29.473Z,2.80
2022-09-23T20:03:56.364Z,2.55
2022-09-23T20:06:23.243Z,3.08
2022-09-23T20:08:50.187Z,3.28
2022-09-23T20:11:22.634Z,2.80
2022-09-23T20:14:01.187Z,2.58
2022-09-23T20:16:31.728Z,2.92
2022-09-23T20:18:59.887Z,3.22
2022-09-23T20:21:28.258Z,3.30
2022-09-23T20:23:55.262Z,3.95
2022-09-23T20:26:40.856Z,3.25
2022-09-23T20:29:08.898Z,3.40
2022-09-23T20:31:35.842Z,3.10
2022-09-23T20:34:05.737Z,3.08
2022-09-23T20:36:33.970Z,3.25
2022-09-23T20:39:03.088Z,2.70
2022-09-23T20:41:31.549Z,2.90
2022-09-23T20:44:02.255Z,3.42
2022-09-23T20:46:29.511Z,3.78
2022-09-23T20:48:56.877Z,3.55
2022-09-23T20:51:24.661Z,3.80
2022-09-23T20:53:52.883Z,3.95
2022-09-23T20:56:20.843Z,3.85
2022-09-23T20:58:48.639Z,3.80
2022-09-23T21:01:15.852Z,4.22
2022-09-23T21:03:45.708Z,4.15
2022-09-23T21:06:14.939Z,4.13
2022-09-23T21:08:42.380Z,3.92
2022-09-23T21:11:14.947Z,4.00
2022-09-23T21:13:49.100Z,4.15
2022-09-23T21:16:17.424Z,4.72
2022-09-23T21:18:45.499Z,6.25
2022-09-23T21:21:14.278Z,4.30
2022-09-23T21:23:45.873Z,4.45
2022-09-23T21:26:21.903Z,4.90
2022-09-23T21:28:54.781Z,4.80
2022-09-23T21:31:27.675Z,4.20
2022-09-23T21:34:00.197Z,4.45
2022-09-23T21:36:32.659Z,4.45
2022-09-23T21:39:01.691Z,4.25
2022-09-23T21:41:28.669Z,4.22
2022-09-23T21:43:56.353Z,4.43
2022-09-23T21:46:23.574Z,4.55
2022-09-23T21:48:57.357Z,4.22
2022-09-23T21:51:29.570Z,4.60
2022-09-23T21:53:58.170Z,4.20
2022-09-23T21:56:29.704Z,4.18
2022-09-23T21:58:58.265Z,4.45
2022-09-23T22:01:30.296Z,4.30
2022-09-23T22:04:08.400Z,3.67
2022-09-23T22:06:38.017Z,3.83
2022-09-23T22:09:10.804Z,4.05
2022-09-23T22:11:57.195Z,3.83
2022-09-23T22:14:25.868Z,3.85
2022-09-23T22:16:58.909Z,3.67
2022-09-23T22:19:27.560Z,4.07
2022-09-23T22:21:55.810Z,3.42
2022-09-23T22:24:22.494Z,3.40
2022-09-23T22:26:49.320Z,3.30
2022-09-23T22:29:34.891Z,3.42
2022-09-23T22:32:21.824Z,3.78
2022-09-23T22:34:51.096Z,3.20
2022-09-23T22:37:30.376Z,3.25
2022-09-23T22:39:57.059Z,3.05
2022-09-23T22:42:24.068Z,3.58
2022-09-23T22:44:51.513Z,3.45
2022-09-23T22:47:19.586Z,3.83
2022-09-23T22:49:46.641Z,4.25
2022-09-23T22:52:15.864Z,4.80
2022-09-23T22:54:42.484Z,7.55
2022-09-23T22:57:09.403Z,5.18
2022-09-23T22:59:37.310Z,5.55
2022-09-23T23:02:05.031Z,4.88
2022-09-23T23:04:31.830Z,4.82
2022-09-23T23:07:03.094Z,4.72
2022-09-23T23:11:56.307Z,4.63
2022-09-23T23:14:22.885Z,4.22
2022-09-23T23:16:49.585Z,3.60
2022-09-23T23:19:17.674Z,3.83
2022-09-23T23:21:45.311Z,4.93
2022-09-23T23:24:23.325Z,4.10
2022-09-23T23:26:51.636Z,4.70
2022-09-23T23:29:19.750Z,4.47
2022-09-23T23:31:47.038Z,4.63
2022-09-23T23:34:19.424Z,4.50
2022-09-23T23:36:47.948Z,4.57
2022-09-23T23:39:14.874Z,4.40
2022-09-23T23:41:41.818Z,3.70
2022-09-23T23:44:09.020Z,4.03
2022-09-23T23:46:37.088Z,4.35
2022-09-23T23:49:04.571Z,4.20
2022-09-23T23:51:31.295Z,4.72
2022-09-23T23:53:59.133Z,5.68
2022-09-23T23:56:26.638Z,5.00
2022-09-23T23:58:58.335Z,5.00
